KSYR/SYR METAR and TAF weather

Enter ICAO airport designator
Station Type Date Time Source
KSYR METAR 2020/09/25 18:54 UTC NOAA

KSYR 251854Z 28005KT 10SM FEW055 27/13 A3004 RMK AO2 SLP168 T02670128


Station Type Date Time Source
KSYR Decoded METAR 2020/09/25 18:54 UTC NOAA

SYRACUSE HANCOCK INTERNATIONAL AIRPORT , NY, United States (KSYR) 43-07N 76-06W 127M
Sep 25, 2020 - 02:54 PM EDT / 2020.09.25 1854 UTC
Wind: from the W (280 degrees) at 6 MPH (5 KT):0
Visibility: 10 mile(s):0
Sky conditions: mostly clear
Temperature: 80.1 F (26.7 C)
Dew Point: 55.0 F (12.8 C)
Relative Humidity: 42%
Pressure (altimeter): 30.04 in. Hg (1017 hPa)
ob: KSYR 251854Z 28005KT 10SM FEW055 27/13 A3004 RMK AO2 SLP168 T02670128
cycle: 19

Station Type Date Time Source
KSYR TAF 2020/09/25 18:22 UTC NOAA

TAF KSYR 251720Z 2518/2618 26005KT P6SM FEW060
FM252300 VRB03KT P6SM SKC
FM261600 19009KT P6SM SCT250

Example: see airport list